Time;durP1;ratioP1;P1;durP2;ratioP2;P2;SDS_P1;SDS_P2;PMS_P1;PMS_P2;Temp;Humidity;BMP_temperature;BMP_pressure;BME280_temperature;BME280_humidity;BME280_pressure;Samples;Min_cycle;Max_cycle;Signal;HPM_P1;HPM_P2
2024/01/14 00:00:40;;;;;;;89.97;27.98;;;;;;;5.52;64.49;101539.44;4910280;28;123783;-69
2024/01/14 00:03:07;;;;;;;85.20;29.52;;;;;;;5.52;64.18;101549.97;4892422;28;113252;-69
2024/01/14 00:05:36;;;;;;;86.32;28.05;;;;;;;5.52;64.01;101539.44;4911069;28;113995;-69
2024/01/14 00:08:03;;;;;;;92.63;29.75;;;;;;;5.52;64.07;101544.69;4889097;28;124118;-69
2024/01/14 00:10:31;;;;;;;98.57;29.10;;;;;;;5.54;64.13;101537.66;4909295;28;123750;-69
2024/01/14 00:12:58;;;;;;;82.70;27.27;;;;;;;5.54;64.28;101527.16;4912702;28;114575;-69
2024/01/14 00:15:25;;;;;;;73.10;25.27;;;;;;;5.55;64.55;101526.25;4915058;28;114826;-69
2024/01/14 00:17:52;;;;;;;59.10;18.60;;;;;;;5.55;64.27;101528.88;4908987;28;123867;-69
2024/01/14 00:20:21;;;;;;;53.50;18.65;;;;;;;5.54;64.02;101527.16;4908521;28;124410;-69
2024/01/14 00:22:48;;;;;;;57.67;18.38;;;;;;;5.55;64.37;101513.13;4894976;28;113482;-69
2024/01/14 00:25:18;;;;;;;56.95;18.05;;;;;;;5.57;63.89;101531.50;4911907;28;114458;-69
2024/01/14 00:27:46;;;;;;;55.72;18.42;;;;;;;5.56;64.06;101525.38;4909595;28;124937;-69
2024/01/14 00:30:13;;;;;;;58.55;19.20;;;;;;;5.56;64.29;101514.88;4913133;28;124008;-69
2024/01/14 00:32:40;;;;;;;65.57;19.73;;;;;;;5.56;64.21;101514.88;4904138;28;114722;-68
2024/01/14 00:35:08;;;;;;;62.65;19.10;;;;;;;5.55;64.16;101501.75;4891945;28;114123;-69
2024/01/14 00:37:35;;;;;;;65.15;19.58;;;;;;;5.54;64.27;101498.25;4913323;28;124025;-69
2024/01/14 00:40:07;;;;;;;65.30;21.25;;;;;;;5.54;64.15;101506.13;4910168;28;123959;-69
2024/01/14 00:42:34;;;;;;;69.50;19.60;;;;;;;5.53;64.28;101499.13;4891018;28;113626;-69
2024/01/14 00:45:03;;;;;;;57.42;19.17;;;;;;;5.54;64.00;101506.13;4909024;28;114150;-69
2024/01/14 00:47:30;;;;;;;72.25;20.10;;;;;;;5.54;64.24;101500.88;4905757;28;126823;-69
2024/01/14 00:49:58;;;;;;;53.85;18.58;;;;;;;5.55;64.04;101497.34;4906992;28;124346;-69
2024/01/14 00:52:25;;;;;;;66.78;19.48;;;;;;;5.57;64.32;101489.44;4912949;28;114283;-69
2024/01/14 00:54:52;;;;;;;60.90;18.52;;;;;;;5.56;64.00;101487.72;4911940;28;113887;-69
2024/01/14 00:57:19;;;;;;;62.88;19.63;;;;;;;5.56;63.78;101488.59;4896454;28;122953;-69
2024/01/14 00:59:47;;;;;;;66.30;19.60;;;;;;;5.57;63.76;101492.94;4911455;28;124392;-69
2024/01/14 01:02:14;;;;;;;57.40;18.77;;;;;;;5.57;64.21;101492.94;4896219;28;114196;-69
2024/01/14 01:04:41;;;;;;;65.50;19.15;;;;;;;5.57;64.00;101498.19;4896785;28;114209;-69
2024/01/14 01:07:09;;;;;;;63.17;18.42;;;;;;;5.58;63.88;101489.44;4910562;28;125060;-69
2024/01/14 01:09:38;;;;;;;66.55;19.20;;;;;;;5.59;64.10;101480.66;4895183;28;123794;-68
2024/01/14 01:12:06;;;;;;;60.72;19.10;;;;;;;5.60;64.10;101478.91;4901306;28;114340;-68
2024/01/14 01:14:33;;;;;;;59.20;17.48;;;;;;;5.61;63.94;101464.88;4910798;28;114409;-68
2024/01/14 01:17:01;;;;;;;58.35;18.55;;;;;;;5.60;63.81;101458.75;4893647;28;124582;-68
2024/01/14 01:19:28;;;;;;;58.25;18.35;;;;;;;5.61;63.76;101465.75;4893874;28;122784;-68
2024/01/14 01:21:56;;;;;;;58.65;17.60;;;;;;;5.61;63.86;101460.50;4913050;28;115178;-68
2024/01/14 01:24:23;;;;;;;62.75;18.35;;;;;;;5.62;63.74;101456.09;4893467;28;114421;-68
2024/01/14 01:26:51;;;;;;;60.63;18.58;;;;;;;5.62;63.78;101456.97;4900701;28;124034;-68
2024/01/14 01:29:19;;;;;;;64.75;18.58;;;;;;;5.63;64.04;101458.72;4902482;28;123761;-68
2024/01/14 01:31:47;;;;;;;58.53;18.20;;;;;;;5.64;63.81;101460.44;4907120;28;114429;-68
2024/01/14 01:34:21;;;;;;;57.30;17.38;;;;;;;5.63;63.62;101457.81;4902524;28;114590;-68
2024/01/14 01:36:50;;;;;;;60.03;18.45;;;;;;;5.63;64.06;101458.72;4905648;28;124331;-68
2024/01/14 01:39:17;;;;;;;53.88;16.42;;;;;;;5.64;63.89;101455.19;4910667;28;124423;-68
2024/01/14 01:41:45;;;;;;;58.78;16.48;;;;;;;5.64;64.10;101449.94;4908434;28;114704;-68
2024/01/14 01:44:13;;;;;;;58.53;17.67;;;;;;;5.65;64.01;101446.41;4892404;28;114030;-68
2024/01/14 01:46:41;;;;;;;55.22;16.70;;;;;;;5.68;63.87;101444.63;4895560;28;124986;-68
2024/01/14 01:49:10;;;;;;;54.03;17.08;;;;;;;5.69;63.78;101446.34;4907082;28;123938;-68
2024/01/14 01:51:40;;;;;;;53.55;16.75;;;;;;;5.70;63.92;101442.84;4901604;28;114904;-68
2024/01/14 01:54:08;;;;;;;53.83;17.45;;;;;;;5.70;64.33;101443.72;4887210;28;114704;-68
2024/01/14 01:56:37;;;;;;;49.97;17.55;;;;;;;5.70;64.08;101437.59;4911515;28;124131;-68
2024/01/14 01:59:06;;;;;;;63.47;17.90;;;;;;;5.71;64.03;101441.94;4904597;28;124421;-68
2024/01/14 02:01:34;;;;;;;58.65;17.70;;;;;;;5.71;63.90;101434.94;4895257;28;113565;-68
2024/01/14 02:04:01;;;;;;;53.70;16.95;;;;;;;5.72;63.89;101430.56;4894427;28;113726;-68
2024/01/14 02:06:31;;;;;;;54.40;17.60;;;;;;;5.71;64.08;101440.19;4893808;28;122955;-68
2024/01/14 02:08:59;;;;;;;53.22;17.58;;;;;;;5.72;64.22;101436.66;4908071;28;124354;-68
2024/01/14 02:11:26;;;;;;;58.33;17.65;;;;;;;5.73;63.91;101432.31;4908978;28;115545;-68
2024/01/14 02:13:54;;;;;;;54.20;18.13;;;;;;;5.71;63.65;101439.31;4894834;28;113983;-68
2024/01/14 02:16:21;;;;;;;53.10;16.20;;;;;;;5.71;63.84;101439.31;4913089;28;124358;-69
2024/01/14 02:18:49;;;;;;;46.65;16.45;;;;;;;5.72;63.84;101430.56;4911146;28;123794;-69
2024/01/14 02:21:22;;;;;;;53.38;17.33;;;;;;;5.72;63.79;101431.41;4907116;28;115072;-69
2024/01/14 02:23:56;;;;;;;48.83;15.80;;;;;;;5.73;63.73;101427.03;4910454;28;114296;-68
2024/01/14 02:26:23;;;;;;;52.95;16.00;;;;;;;5.73;63.89;101432.31;4904622;28;123898;-68
2024/01/14 02:28:50;;;;;;;50.15;16.40;;;;;;;5.73;63.79;101421.78;4909610;28;123577;-68
2024/01/14 02:31:18;;;;;;;48.20;16.10;;;;;;;5.73;63.89;101416.53;4901998;28;114252;-68
2024/01/14 02:33:45;;;;;;;54.55;15.88;;;;;;;5.73;63.74;101417.41;4911031;28;113683;-69
2024/01/14 02:36:12;;;;;;;46.95;15.60;;;;;;;5.74;63.82;101407.75;4893174;28;123471;-68
2024/01/14 02:38:40;;;;;;;54.47;16.20;;;;;;;5.74;63.75;101408.59;4893622;28;123133;-68
2024/01/14 02:41:07;;;;;;;44.58;15.38;;;;;;;5.75;63.82;101404.22;4892131;28;113383;-68
2024/01/14 02:43:34;;;;;;;54.15;15.05;;;;;;;5.75;63.69;101404.22;4907951;28;114155;-68
2024/01/14 02:46:02;;;;;;;54.05;16.83;;;;;;;5.76;63.82;101405.94;4903061;28;123197;-69
2024/01/14 02:48:30;;;;;;;47.95;16.48;;;;;;;5.75;63.87;101401.59;4907113;28;124496;-69
2024/01/14 02:50:57;;;;;;;55.25;16.85;;;;;;;5.76;63.85;101398.06;4891922;28;113895;-68
2024/01/14 02:53:24;;;;;;;51.75;16.52;;;;;;;5.77;63.76;101399.81;4910959;28;114604;-68
2024/01/14 02:55:52;;;;;;;45.38;16.05;;;;;;;5.76;63.63;101400.69;4885258;28;123734;-68
2024/01/14 02:58:19;;;;;;;53.13;16.80;;;;;;;5.75;63.82;101391.09;4903122;28;123831;-68
2024/01/14 03:00:47;;;;;;;48.92;15.65;;;;;;;5.76;63.87;101384.94;4905762;28;115563;-68
2024/01/14 03:03:15;;;;;;;55.83;17.88;;;;;;;5.76;63.88;101379.66;4892741;28;114027;-68
2024/01/14 03:05:42;;;;;;;55.97;16.70;;;;;;;5.76;63.76;101387.56;4912036;28;124728;-68
2024/01/14 03:08:10;;;;;;;57.22;16.92;;;;;;;5.75;63.58;101377.94;4894265;28;123606;-68
2024/01/14 03:10:37;;;;;;;53.85;17.65;;;;;;;5.75;63.64;101362.19;4893789;28;113275;-68
2024/01/14 03:13:04;;;;;;;52.08;17.48;;;;;;;5.76;64.02;101363.91;4911001;28;113870;-68
2024/01/14 03:15:33;;;;;;;51.70;16.92;;;;;;;5.76;63.71;101366.53;4890977;28;122602;-68
2024/01/14 03:18:00;;;;;;;46.33;15.65;;;;;;;5.76;63.85;101363.91;4905295;28;124145;-68
2024/01/14 03:20:28;;;;;;;51.95;16.58;;;;;;;5.75;63.54;101367.44;4887088;28;113563;-68
2024/01/14 03:22:56;;;;;;;60.05;17.23;;;;;;;5.76;63.87;101369.16;4910433;28;114098;-68
2024/01/14 03:25:24;;;;;;;54.50;17.38;;;;;;;5.76;63.89;101364.75;4904281;28;123967;-68
2024/01/14 03:27:51;;;;;;;57.53;18.00;;;;;;;5.76;63.79;101359.50;4893102;28;124713;-68
2024/01/14 03:30:21;;;;;;;50.65;17.55;;;;;;;5.77;63.87;101366.50;4904508;28;115118;-68
2024/01/14 03:32:48;;;;;;;54.35;17.65;;;;;;;5.77;63.70;101360.41;4867945;28;112958;-68
2024/01/14 03:35:15;;;;;;;53.85;17.10;;;;;;;5.76;63.76;101354.25;4909371;28;124011;-68
2024/01/14 03:37:42;;;;;;;61.85;18.85;;;;;;;5.76;63.53;101350.75;4894287;28;122859;-68
2024/01/14 03:40:10;;;;;;;59.95;17.52;;;;;;;5.76;63.56;101342.88;4908974;28;114866;-68
2024/01/14 03:42:37;;;;;;;52.75;17.48;;;;;;;5.74;63.54;101334.16;4902075;28;114319;-68
2024/01/14 03:45:05;;;;;;;55.83;17.67;;;;;;;5.73;63.55;101332.44;4906343;28;124743;-68
2024/01/14 03:47:32;;;;;;;52.03;17.75;;;;;;;5.72;63.42;101331.53;4890149;28;123311;-68
2024/01/14 03:50:00;;;;;;;54.90;17.77;;;;;;;5.71;63.83;101328.94;4892086;28;115270;-68
2024/01/14 03:52:27;;;;;;;56.33;18.00;;;;;;;5.70;63.66;101332.47;4909589;28;115168;-68
2024/01/14 03:54:54;;;;;;;47.78;16.52;;;;;;;5.70;63.78;101337.72;4887704;28;124723;-68
2024/01/14 03:57:22;;;;;;;55.45;17.33;;;;;;;5.68;63.67;101329.88;4905092;28;123836;-68
2024/01/14 03:59:49;;;;;;;58.88;16.95;;;;;;;5.68;63.44;101329.00;4906866;28;114318;-68
2024/01/14 04:02:17;;;;;;;59.90;17.30;;;;;;;5.66;63.73;101322.00;4909625;28;114529;-68
2024/01/14 04:04:44;;;;;;;56.72;16.95;;;;;;;5.66;63.65;101316.75;4907538;28;123680;-68
2024/01/14 04:07:12;;;;;;;50.33;17.67;;;;;;;5.65;63.36;101322.91;4911162;28;123517;-68
2024/01/14 04:09:40;;;;;;;54.97;16.40;;;;;;;5.64;63.54;101315.91;4892982;28;113612;-68
2024/01/14 04:12:08;;;;;;;50.08;16.55;;;;;;;5.65;63.42;101320.28;4904353;28;113939;-68
2024/01/14 04:14:35;;;;;;;57.95;17.52;;;;;;;5.64;63.84;101329.06;4906717;28;124624;-68
2024/01/14 04:17:04;;;;;;;50.67;16.77;;;;;;;5.65;63.64;101325.53;4900812;28;122731;-68
2024/01/14 04:19:31;;;;;;;60.50;17.85;;;;;;;5.65;63.55;101325.53;4907979;28;114346;-68
2024/01/14 04:21:58;;;;;;;51.42;16.73;;;;;;;5.64;63.43;101317.69;4883912;28;113316;-68
2024/01/14 04:24:26;;;;;;;51.67;17.52;;;;;;;5.63;63.53;101316.81;4906706;28;123897;-68
2024/01/14 04:26:53;;;;;;;50.80;16.65;;;;;;;5.63;63.49;101316.81;4907317;28;124885;-68
2024/01/14 04:29:20;;;;;;;51.60;16.42;;;;;;;5.63;63.41;101314.19;4911091;28;114208;-68
2024/01/14 04:31:49;;;;;;;52.60;17.17;;;;;;;5.63;63.71;101306.31;4906156;28;113624;-68
2024/01/14 04:34:16;;;;;;;48.38;15.45;;;;;;;5.65;63.82;101308.88;4902867;28;123158;-69
2024/01/14 04:36:43;;;;;;;56.08;17.00;;;;;;;5.63;63.69;101300.16;4908054;28;124249;-68
2024/01/14 04:39:10;;;;;;;50.88;16.15;;;;;;;5.62;63.62;101301.94;4903791;28;115241;-68
2024/01/14 04:41:39;;;;;;;55.70;17.52;;;;;;;5.63;63.57;101294.91;4890877;28;115231;-68
2024/01/14 04:44:06;;;;;;;53.10;16.83;;;;;;;5.62;63.35;101294.06;4893817;28;124540;-69
2024/01/14 04:46:34;;;;;;;55.47;17.38;;;;;;;5.61;63.72;101284.44;4907498;28;123889;-68
2024/01/14 04:49:01;;;;;;;58.42;18.52;;;;;;;5.60;63.43;101282.69;4889143;28;114349;-68
2024/01/14 04:51:29;;;;;;;50.22;16.45;;;;;;;5.59;63.64;101278.31;4912604;28;114683;-69
2024/01/14 04:53:56;;;;;;;51.45;16.00;;;;;;;5.57;63.42;101280.13;4897256;28;123704;-68
2024/01/14 04:56:23;;;;;;;46.70;16.55;;;;;;;5.56;63.30;101273.16;4906660;28;122229;-69
2024/01/14 04:58:51;;;;;;;48.92;15.90;;;;;;;5.56;63.28;101278.41;4914754;28;114344;-68
2024/01/14 05:01:19;;;;;;;46.88;16.70;;;;;;;5.55;63.79;101281.06;4912045;28;114658;-69
2024/01/14 05:03:46;;;;;;;45.60;16.00;;;;;;;5.53;63.69;101273.19;4912683;28;124364;-68
2024/01/14 05:06:14;;;;;;;40.83;15.30;;;;;;;5.52;63.39;101271.47;4894613;28;123918;-69
2024/01/14 05:08:42;;;;;;;48.47;15.10;;;;;;;5.53;63.72;101267.94;4891390;28;114190;-68
2024/01/14 05:11:09;;;;;;;47.47;16.95;;;;;;;5.53;63.50;101273.19;4910670;28;114358;-68
2024/01/14 05:13:38;;;;;;;49.63;16.10;;;;;;;5.51;63.30;101264.47;4910807;28;123962;-68
2024/01/14 05:16:05;;;;;;;46.33;15.82;;;;;;;5.51;63.46;101269.72;4909012;28;124234;-68
2024/01/14 05:18:33;;;;;;;44.00;15.32;;;;;;;5.51;63.28;101269.72;4895932;28;114615;-68
2024/01/14 05:21:00;;;;;;;39.45;14.65;;;;;;;5.50;63.35;101262.75;4910478;28;114532;-68
2024/01/14 05:23:27;;;;;;;44.63;16.17;;;;;;;5.49;63.58;101261.00;4906216;28;124287;-68
2024/01/14 05:25:55;;;;;;;45.72;15.43;;;;;;;5.48;63.34;101259.25;4892584;28;123000;-68
2024/01/14 05:28:22;;;;;;;44.25;14.90;;;;;;;5.46;63.29;101259.31;4893424;28;114649;-68
2024/01/14 05:30:49;;;;;;;44.00;14.88;;;;;;;5.43;63.17;101255.88;4881772;28;114123;-68
2024/01/14 05:33:16;;;;;;;43.13;15.05;;;;;;;5.42;63.63;101248.88;4912320;28;124438;-68
2024/01/14 05:35:44;;;;;;;46.03;14.55;;;;;;;5.41;63.23;101247.16;4908758;28;124162;-68
2024/01/14 05:38:11;;;;;;;46.35;13.85;;;;;;;5.39;63.54;101255.03;4913326;28;114904;-68
2024/01/14 05:40:39;;;;;;;39.30;13.38;;;;;;;5.38;63.53;101252.44;4905598;28;114449;-68
2024/01/14 05:43:06;;;;;;;37.03;12.45;;;;;;;5.36;63.37;101259.47;4910116;28;124561;-68
2024/01/14 05:45:33;;;;;;;37.03;12.60;;;;;;;5.34;63.25;101250.75;4909275;28;124279;-68
2024/01/14 05:48:01;;;;;;;34.00;13.63;;;;;;;5.32;63.50;101242.91;4905478;28;114179;-73
2024/01/14 05:50:29;;;;;;;35.55;12.10;;;;;;;5.32;63.59;101242.03;4889249;28;114151;-68
2024/01/14 05:52:56;;;;;;;35.75;13.27;;;;;;;5.32;63.35;101236.78;4910027;28;124484;-68
2024/01/14 05:55:23;;;;;;;34.95;12.07;;;;;;;5.32;63.16;101231.53;4890480;28;122809;-68
2024/01/14 05:57:51;;;;;;;32.40;12.25;;;;;;;5.30;63.51;101233.34;4908169;28;114110;-68
2024/01/14 06:00:22;;;;;;;37.13;12.77;;;;;;;5.28;63.09;101224.63;4912517;28;114174;-68
2024/01/14 06:02:49;;;;;;;32.67;10.98;;;;;;;5.26;63.14;101228.13;4911766;28;124093;-68
2024/01/14 06:05:17;;;;;;;32.42;12.00;;;;;;;5.25;63.19;101221.16;4910263;28;124514;-68
2024/01/14 06:07:49;;;;;;;37.80;11.48;;;;;;;5.25;63.27;101217.63;4893730;28;113102;-68
2024/01/14 06:10:17;;;;;;;35.20;11.80;;;;;;;5.25;63.21;101215.91;4893702;28;113235;-68
2024/01/14 06:12:44;;;;;;;29.95;11.35;;;;;;;5.26;63.36;101216.75;4905844;28;123779;-68
2024/01/14 06:15:12;;;;;;;36.55;12.13;;;;;;;5.25;63.54;101220.25;4908011;28;124636;-68
2024/01/14 06:17:39;;;;;;;32.25;11.73;;;;;;;5.24;63.48;101224.66;4909360;28;115093;-68
2024/01/14 06:20:09;;;;;;;34.22;11.30;;;;;;;5.25;63.42;101223.78;4895576;28;114747;-69
2024/01/14 06:22:36;;;;;;;37.85;11.90;;;;;;;5.25;63.22;101215.91;4891345;28;124611;-68
2024/01/14 06:25:05;;;;;;;37.47;11.43;;;;;;;5.24;63.14;101222.03;4906271;28;123673;-68
2024/01/14 06:27:32;;;;;;;34.10;11.52;;;;;;;5.24;63.35;101222.03;4910550;28;115187;-69
2024/01/14 06:30:01;;;;;;;35.97;11.77;;;;;;;5.24;63.12;101218.53;4887785;28;113876;-68
2024/01/14 06:32:29;;;;;;;33.67;10.90;;;;;;;5.24;63.21;101211.53;4909495;28;124027;-68
2024/01/14 06:34:56;;;;;;;35.50;11.68;;;;;;;5.23;63.16;101209.78;4889828;28;124585;-68
2024/01/14 06:37:24;;;;;;;35.10;11.60;;;;;;;5.24;63.34;101214.16;4874110;28;113643;-68
2024/01/14 06:39:51;;;;;;;35.60;11.70;;;;;;;5.23;63.44;101212.41;4895059;28;114560;-68
2024/01/14 06:42:18;;;;;;;35.35;11.75;;;;;;;5.22;63.18;101205.44;4907203;28;124376;-68
2024/01/14 06:44:45;;;;;;;38.78;11.85;;;;;;;5.21;62.95;101211.56;4894319;28;123949;-68
2024/01/14 06:47:13;;;;;;;33.08;11.90;;;;;;;5.19;63.29;101200.22;4898597;28;113920;-68
2024/01/14 06:49:41;;;;;;;39.15;12.25;;;;;;;5.19;63.46;101194.13;4903701;28;113056;-68
2024/01/14 06:52:08;;;;;;;33.95;11.63;;;;;;;5.18;63.07;101193.25;4901748;28;124029;-68
2024/01/14 06:54:38;;;;;;;33.63;11.70;;;;;;;5.19;63.11;101184.47;4882052;28;124139;-68
2024/01/14 06:57:06;;;;;;;33.22;12.40;;;;;;;5.18;63.13;101176.63;4894110;28;114548;-68
2024/01/14 06:59:33;;;;;;;37.28;11.95;;;;;;;5.17;63.01;101181.00;4907413;28;113394;-68
2024/01/14 07:02:00;;;;;;;36.72;12.02;;;;;;;5.15;63.17;101180.16;4909501;28;123766;-68
2024/01/14 07:04:27;;;;;;;32.10;11.85;;;;;;;5.12;63.50;101172.34;4896304;28;123955;-68
2024/01/14 07:06:57;;;;;;;35.25;11.93;;;;;;;5.12;63.05;101167.09;4898837;28;115261;-68
2024/01/14 07:09:24;;;;;;;37.53;12.15;;;;;;;5.11;63.05;101165.38;4874710;28;114157;-68
2024/01/14 07:12:03;;;;;;;38.72;12.15;;;;;;;5.10;63.19;101163.63;4902485;28;123972;-69
2024/01/14 07:14:31;;;;;;;38.78;11.80;;;;;;;5.08;63.19;101162.78;4896413;28;122915;-75
2024/01/14 07:16:59;;;;;;;37.10;13.13;;;;;;;5.07;63.36;101158.44;4898143;28;114420;-75
2024/01/14 07:19:26;;;;;;;37.38;12.25;;;;;;;5.07;63.39;101161.06;4909729;28;114143;-74
2024/01/14 07:21:53;;;;;;;37.40;12.35;;;;;;;5.07;63.19;101159.31;4897611;28;125249;-75
2024/01/14 07:24:21;;;;;;;40.08;12.45;;;;;;;5.08;63.33;101165.41;4894230;28;122587;-76
2024/01/14 07:26:48;;;;;;;29.67;10.15;;;;;;;5.09;63.27;101171.56;4903237;28;113719;-75
2024/01/14 07:29:15;;;;;;;32.17;11.07;;;;;;;5.07;63.35;101168.94;4886844;28;114040;-75
2024/01/14 07:31:43;;;;;;;31.15;11.65;;;;;;;5.07;63.43;101168.94;4884995;28;123986;-76
2024/01/14 07:34:10;;;;;;;38.80;13.38;;;;;;;5.08;63.22;101160.16;4894477;28;124318;-75
2024/01/14 07:36:39;;;;;;;36.67;12.88;;;;;;;5.08;63.37;101165.41;4912656;28;113878;-75
2024/01/14 07:39:06;;;;;;;36.72;13.30;;;;;;;5.09;63.50;101161.91;4901255;28;114173;-76
2024/01/14 07:41:34;;;;;;;47.15;14.18;;;;;;;5.09;63.25;101161.91;4891165;28;122573;-75
2024/01/14 07:44:34;;;;;;;;;;;;;;;;;;;;;
2024/01/14 07:47:51;;;;;;;34.83;12.48;;;;;;;5.06;63.36;101161.94;4906494;28;114860;-76
2024/01/14 07:50:18;;;;;;;39.95;12.43;;;;;;;5.06;63.40;101177.69;4907333;28;114145;-76
2024/01/14 07:52:45;;;;;;;33.67;12.35;;;;;;;5.05;63.36;101165.47;4885647;28;123039;-75
2024/01/14 07:55:13;;;;;;;34.38;12.00;;;;;;;5.05;63.24;101165.47;4888144;28;123280;-76
2024/01/14 07:57:40;;;;;;;36.40;13.25;;;;;;;5.07;63.41;101164.56;4887518;28;115963;-76
2024/01/14 08:00:10;;;;;;;38.45;12.98;;;;;;;5.08;63.32;101165.41;4897337;28;115189;-76
2024/01/14 08:02:41;;;;;;;40.42;13.63;;;;;;;5.09;63.49;101161.91;4909812;28;124029;-76
2024/01/14 08:05:11;;;;;;;37.28;13.75;;;;;;;5.10;63.22;101163.63;4897879;28;123324;-76
2024/01/14 08:07:41;;;;;;;37.90;13.27;;;;;;;5.10;63.31;101163.63;4884390;28;114171;-76
2024/01/14 08:10:10;;;;;;;36.35;12.35;;;;;;;5.10;63.30;101158.38;4909340;28;114170;-76
2024/01/14 08:12:38;;;;;;;35.47;12.45;;;;;;;5.12;63.76;101161.84;4913401;28;124860;-76
2024/01/14 08:15:08;;;;;;;35.30;13.05;;;;;;;5.13;63.69;101158.31;4882248;28;123230;-76
2024/01/14 08:17:37;;;;;;;37.83;12.57;;;;;;;5.16;63.33;101168.78;4905591;28;114595;-74
2024/01/14 08:20:06;;;;;;;35.42;13.30;;;;;;;5.17;63.52;101170.50;4908656;28;114591;-74
2024/01/14 08:22:33;;;;;;;39.13;13.27;;;;;;;5.17;63.24;101161.78;4904045;28;124345;-74
2024/01/14 08:25:01;;;;;;;34.40;12.68;;;;;;;5.17;63.17;101165.25;4911375;28;123037;-74
2024/01/14 08:27:30;;;;;;;33.28;12.27;;;;;;;5.17;63.51;101170.50;4907651;28;114614;-74
2024/01/14 08:29:57;;;;;;;35.03;12.07;;;;;;;5.16;63.22;101173.16;4911431;28;113497;-74
2024/01/14 08:32:25;;;;;;;38.75;12.70;;;;;;;5.16;63.25;101163.53;4912918;28;122816;-74
2024/01/14 08:34:52;;;;;;;35.65;12.68;;;;;;;5.15;63.22;101167.03;4917273;28;124244;-75
2024/01/14 08:37:21;;;;;;;37.50;12.60;;;;;;;5.16;63.51;101163.53;4904332;28;114013;-74
2024/01/14 08:39:50;;;;;;;37.30;12.77;;;;;;;5.15;63.30;101151.28;4913532;28;114101;-74
2024/01/14 08:42:18;;;;;;;39.28;12.55;;;;;;;5.16;63.44;101153.03;4910416;28;124113;-74
2024/01/14 08:44:45;;;;;;;34.65;12.18;;;;;;;5.16;63.11;101154.78;4915192;28;125001;-74
2024/01/14 08:47:13;;;;;;;33.33;11.90;;;;;;;5.15;63.47;101151.28;4914196;28;115283;-74
2024/01/14 08:49:40;;;;;;;35.35;12.27;;;;;;;5.15;63.20;101145.19;4906608;28;114814;-75
2024/01/14 08:52:08;;;;;;;33.63;12.38;;;;;;;5.15;63.31;101146.03;4879605;28;123555;-75
2024/01/14 08:54:36;;;;;;;32.70;12.02;;;;;;;5.15;63.19;101135.53;4896971;28;123158;-74
2024/01/14 08:57:03;;;;;;;37.45;12.50;;;;;;;5.15;63.10;101137.31;4897319;28;114250;-74
2024/01/14 08:59:33;;;;;;;35.38;13.13;;;;;;;5.16;63.34;101139.91;4909237;28;113707;-75
2024/01/14 09:02:00;;;;;;;36.33;12.75;;;;;;;5.17;63.57;101136.38;4902473;28;123914;-74
2024/01/14 09:04:29;;;;;;;36.60;13.20;;;;;;;5.16;63.29;101134.66;4900462;28;124197;-74
2024/01/14 09:06:56;;;;;;;38.53;13.00;;;;;;;5.18;63.60;101131.97;4909265;28;113588;-75
2024/01/14 09:09:25;;;;;;;36.15;13.88;;;;;;;5.18;63.59;101140.75;4908723;28;113985;-74
2024/01/14 09:11:52;;;;;;;37.10;13.45;;;;;;;5.16;63.57;101142.53;4902327;28;124480;-74
2024/01/14 09:14:21;;;;;;;33.88;12.10;;;;;;;5.17;63.24;101144.25;4898206;28;122853;-74
2024/01/14 09:16:49;;;;;;;32.13;12.85;;;;;;;5.18;63.34;101143.38;4906355;28;114511;-75
2024/01/14 09:19:16;;;;;;;31.52;11.88;;;;;;;5.19;63.40;101142.47;4898308;28;113264;-74
2024/01/14 09:21:43;;;;;;;35.35;13.23;;;;;;;5.20;63.23;101149.47;4904916;28;122877;-75
2024/01/14 09:24:12;;;;;;;38.67;12.93;;;;;;;5.21;63.30;101148.53;4902200;28;124100;-74
2024/01/14 09:26:39;;;;;;;34.38;12.00;;;;;;;5.23;63.59;101154.63;4899410;28;113325;-74
2024/01/14 09:29:07;;;;;;;31.17;11.95;;;;;;;5.23;63.35;101149.38;4913842;28;114210;-74
2024/01/14 09:31:35;;;;;;;36.80;12.77;;;;;;;5.22;63.50;101142.41;4906198;28;123465;-75
2024/01/14 09:34:05;;;;;;;36.90;12.45;;;;;;;5.21;63.08;101145.91;4900068;28;122278;-75
2024/01/14 09:36:32;;;;;;;32.90;12.35;;;;;;;5.21;63.44;101140.66;4913429;28;115177;-74
2024/01/14 09:39:01;;;;;;;33.35;12.05;;;;;;;5.21;63.41;101135.41;4887027;28;113851;-74
2024/01/14 09:41:35;;;;;;;36.65;12.77;;;;;;;5.19;63.37;101131.97;4913505;28;124584;-74
2024/01/14 09:44:13;;;;;;;31.02;12.02;;;;;;;5.19;63.61;101126.69;4915968;28;123988;-74
2024/01/14 09:46:41;;;;;;;34.78;12.65;;;;;;;5.18;63.25;101125.00;4897717;28;114292;-74
2024/01/14 09:49:11;;;;;;;38.05;12.32;;;;;;;5.18;63.18;101117.13;4897411;28;112790;-74
2024/01/14 09:51:47;;;;;;;35.13;11.98;;;;;;;5.20;63.50;101123.19;4912860;28;125406;-74
2024/01/14 09:54:15;;;;;;;41.05;13.63;;;;;;;5.22;63.37;101120.56;4899249;28;123399;-75
2024/01/14 09:56:44;;;;;;;37.55;12.55;;;;;;;5.23;63.30;101112.63;4914264;28;114459;-74
2024/01/14 09:59:16;;;;;;;35.45;12.52;;;;;;;5.23;63.28;101112.63;4913864;28;114557;-75
2024/01/14 10:01:44;;;;;;;33.28;12.50;;;;;;;5.24;63.35;101109.13;4912080;28;123847;-74
2024/01/14 10:04:16;;;;;;;38.05;12.48;;;;;;;5.25;63.43;101116.13;4914169;28;124879;-74
2024/01/14 10:06:45;;;;;;;32.50;12.43;;;;;;;5.26;63.64;101101.22;4916110;28;114470;-74
2024/01/14 10:09:13;;;;;;;33.70;12.48;;;;;;;5.28;63.41;101103.81;4898821;28;113608;-74
2024/01/14 10:11:40;;;;;;;33.17;12.45;;;;;;;5.31;63.87;101103.75;4912093;28;124594;-74
2024/01/14 10:14:08;;;;;;;37.17;13.70;;;;;;;5.33;63.61;101096.69;4885268;28;124267;-74
2024/01/14 10:16:38;;;;;;;40.15;12.32;;;;;;;5.35;63.47;101095.78;4915845;28;114400;-74
2024/01/14 10:19:23;;;;;;;33.70;12.50;;;;;;;5.37;63.40;101099.25;4888216;28;114051;-74
2024/01/14 10:21:53;;;;;;;35.95;12.98;;;;;;;5.40;63.75;101095.69;4914114;28;124713;-74
2024/01/14 10:24:41;;;;;;;32.10;12.02;;;;;;;5.42;63.25;101096.50;4911047;28;124032;-74
2024/01/14 10:27:10;;;;;;;35.08;12.15;;;;;;;5.43;63.63;101082.50;4888421;28;115786;-74
2024/01/14 10:29:40;;;;;;;35.38;13.10;;;;;;;5.45;63.37;101083.34;4901641;28;115748;-74
2024/01/14 10:32:10;;;;;;;36.97;13.60;;;;;;;5.47;63.71;101084.16;4913946;28;124218;-74
2024/01/14 10:34:38;;;;;;;38.63;13.95;;;;;;;5.47;63.62;101069.25;4926332;23;124904;-74
2024/01/14 10:37:05;;;;;;;38.03;12.65;;;;;;;5.49;63.64;101071.88;4932119;28;114380;-74
2024/01/14 10:39:34;;;;;;;37.88;13.48;;;;;;;5.53;63.48;101068.28;4931082;28;114338;-73
2024/01/14 10:42:03;;;;;;;34.17;12.85;;;;;;;5.54;63.60;101064.75;4930873;28;125135;-75
2024/01/14 10:44:31;;;;;;;36.47;12.75;;;;;;;5.56;63.61;101057.72;4906887;28;122722;-74
2024/01/14 10:47:03;;;;;;;35.70;12.52;;;;;;;5.59;63.86;101047.13;4926957;28;115010;-76
2024/01/14 10:49:40;;;;;;;37.15;13.05;;;;;;;5.63;63.46;101043.56;4907718;28;113650;-76
2024/01/14 10:52:10;;;;;;;40.40;13.07;;;;;;;5.64;63.65;101042.63;4916097;28;124138;-75
2024/01/14 10:54:58;;;;;;;40.05;13.45;;;;;;;5.64;63.69;101050.53;4913358;28;124515;-75
2024/01/14 10:57:37;;;;;;;31.60;12.82;;;;;;;5.65;63.48;101041.75;4906389;28;114767;-75
2024/01/14 11:00:08;;;;;;;32.90;11.93;;;;;;;5.68;63.30;101029.44;4930846;28;114153;-75
2024/01/14 11:02:39;;;;;;;34.17;12.07;;;;;;;5.69;63.67;101031.16;4914225;28;123866;-75
2024/01/14 11:05:08;;;;;;;37.42;12.88;;;;;;;5.70;63.29;101028.50;4967989;23;124118;-80
2024/01/14 11:07:36;;;;;;;38.97;13.27;;;;;;;5.71;63.19;101018.84;4959442;28;115065;-80
2024/01/14 11:10:07;;;;;;;33.75;12.88;;;;;;;5.74;63.72;101008.28;4981947;28;114744;-80
2024/01/14 11:12:55;;;;;;;33.97;12.00;;;;;;;5.75;63.56;101012.66;4963752;28;124611;-80
2024/01/14 11:15:32;;;;;;;35.42;12.23;;;;;;;5.78;63.63;101007.31;4928863;28;124371;-80